Ana Sayfa
METAR-TAF:

METAR-TAF

Havaalanları :

Fort George G. Meade, Maryland, Amerika Birleşik Devletleri

Enlem: 39-05N, Boylam: 076-46W, yükseklik: 46 m

Güncel hava durumu gözlemi

Rapor saat 15:03 UTC de 26 dakika önce yapıldı.
Rüzgar batı/kuzeybatıdan 17 kt ve 23 kt'a kadar ani rüzgarlar
Sıcaklık 12°C
Nem 38%
Basınç 1013 hPa
Görüş mesafesi: 16.1 km
Açık gökyüzü

METAR: KFME 021503Z AUTO 30017G23KT 10SM CLR 12/M02 A2991 RMK AO1

Saat: 11:29 (15:29 UTC)


TAF: eksik

4.000'den fazla havaalanı için hava durumu gözlemleri ve tahminleri (METAR ve TAF raporları).

Kullanılabilir istasyonlar harita üzerinde sarı ve kırmızı noktalarla gösterilir.

İstasyonun adını görmek için fareyi noktanın üzerinde gezdirin.

Sonrasında hava gözlem ve tahminlerini görmek için tıklayın.

Haritayı değiştirmek için: yaklaştırmak için siyah artı işaretli yeşil düğmeye ve uzaklaştırmak için de eksi işaretli düğmeye hızla tıklayın; bitişik haritalar için yeşil okları kullanın.


METAR-TAF: